Terminal Aerodrome Forecast
Issued by NWS

Home | Current Version | Previous Version | Graphics & Text | Print | Product List | Glossary On
Versions: 1 2 3 4 5 6 7 8 9 10 11 12 13 14 15 16 17 18 19 20 21
000
FTUS43 KABR 251900 AAA
TAFMBG
TAF AMD
KMBG 251908Z 2519/2618 36014KT P6SM SCT019 OVC080
      TEMPO 2519/2521 BKN019
     FM252100 35016G24KT P6SM SCT040 BKN100
     FM260100 34010KT P6SM SCT070 SCT120=

USA.gov is the U.S. government's official web portal to all federal, state and local government web resources and services.